createdAt,value
2023-03-29T00:02:30.711Z,5.96
2023-03-29T00:05:05.896Z,6.05
2023-03-29T00:07:33.679Z,6.05
2023-03-29T00:10:04.835Z,5.99
2023-03-29T00:12:36.557Z,6.00
2023-03-29T00:15:11.291Z,6.17
2023-03-29T00:17:38.561Z,6.22
2023-03-29T00:20:10.481Z,6.24
2023-03-29T00:22:40.138Z,6.17
2023-03-29T00:25:08.311Z,6.13
2023-03-29T00:27:35.945Z,6.14
2023-03-29T00:30:07.331Z,6.13
2023-03-29T00:32:35.897Z,6.19
2023-03-29T00:35:05.987Z,6.16
2023-03-29T00:37:33.970Z,6.27
2023-03-29T00:40:05.055Z,6.20
2023-03-29T00:42:35.133Z,6.23
2023-03-29T00:45:08.885Z,6.20
2023-03-29T00:47:42.305Z,6.26
2023-03-29T00:50:17.471Z,6.28
2023-03-29T00:52:48.741Z,6.28
2023-03-29T00:55:19.506Z,6.26
2023-03-29T00:57:47.362Z,6.25
2023-03-29T01:00:18.713Z,6.27
2023-03-29T01:02:54.662Z,6.24
2023-03-29T01:05:25.972Z,6.31
2023-03-29T01:07:58.944Z,6.38
2023-03-29T01:10:42.726Z,6.45
2023-03-29T01:13:16.223Z,6.37
2023-03-29T01:15:46.852Z,6.30
2023-03-29T01:18:15.541Z,6.39
2023-03-29T01:21:05.169Z,6.41
2023-03-29T01:23:58.763Z,6.38
2023-03-29T01:26:36.363Z,6.41
2023-03-29T01:29:12.510Z,6.42
2023-03-29T01:31:45.353Z,6.49
2023-03-29T01:34:19.870Z,6.40
2023-03-29T01:36:51.406Z,6.41
2023-03-29T01:39:19.486Z,6.44
2023-03-29T01:41:56.747Z,6.43
2023-03-29T01:44:31.793Z,6.44
2023-03-29T01:47:08.684Z,6.48
2023-03-29T01:49:42.752Z,6.44
2023-03-29T01:52:16.041Z,6.45
2023-03-29T01:54:50.086Z,6.47
2023-03-29T01:57:19.850Z,6.47
2023-03-29T01:59:50.052Z,6.54
2023-03-29T02:02:19.305Z,6.63
2023-03-29T02:04:53.334Z,6.61
2023-03-29T02:07:24.889Z,6.63
2023-03-29T02:09:54.461Z,6.60
2023-03-29T02:12:22.259Z,6.67
2023-03-29T02:14:51.100Z,6.63
2023-03-29T02:17:22.851Z,6.73
2023-03-29T02:19:58.057Z,6.69
2023-03-29T02:22:29.793Z,6.71
2023-03-29T02:25:11.652Z,6.66
2023-03-29T02:27:39.571Z,6.71
2023-03-29T02:30:12.960Z,6.75
2023-03-29T02:32:49.512Z,6.76
2023-03-29T02:35:22.182Z,6.86
2023-03-29T02:37:54.598Z,6.76
2023-03-29T02:40:23.632Z,6.75
2023-03-29T02:42:50.849Z,6.78
2023-03-29T02:45:19.921Z,6.83
2023-03-29T02:47:53.067Z,6.82
2023-03-29T02:50:21.622Z,6.93
2023-03-29T02:52:53.639Z,6.88
2023-03-29T02:55:25.612Z,6.89
2023-03-29T02:57:52.602Z,6.88
2023-03-29T03:00:23.236Z,6.94
2023-03-29T03:02:53.215Z,6.95
2023-03-29T03:05:23.987Z,6.83
2023-03-29T03:07:51.963Z,6.89
2023-03-29T03:10:19.288Z,6.88
2023-03-29T03:12:46.648Z,6.94
2023-03-29T03:15:13.606Z,7.05
2023-03-29T03:17:42.364Z,7.02
2023-03-29T03:20:14.013Z,7.05
2023-03-29T03:22:45.711Z,7.16
2023-03-29T03:25:15.083Z,7.07
2023-03-29T03:27:45.115Z,7.05
2023-03-29T03:30:16.140Z,7.12
2023-03-29T03:32:44.976Z,7.10
2023-03-29T03:35:13.039Z,7.10
2023-03-29T03:37:40.629Z,7.07
2023-03-29T03:40:10.445Z,7.02
2023-03-29T03:42:38.897Z,7.09
2023-03-29T03:45:08.426Z,7.08
2023-03-29T03:47:37.409Z,7.20
2023-03-29T03:50:08.731Z,7.18
2023-03-29T03:52:35.793Z,7.20
2023-03-29T03:55:05.289Z,7.27
2023-03-29T03:57:33.311Z,7.25
2023-03-29T04:00:02.355Z,7.22
2023-03-29T04:02:29.725Z,7.10
2023-03-29T04:04:57.067Z,7.31
2023-03-29T04:07:27.731Z,7.17
2023-03-29T04:09:55.198Z,7.29
2023-03-29T04:12:22.300Z,7.26
2023-03-29T04:14:52.758Z,7.22
2023-03-29T04:17:20.253Z,7.32
2023-03-29T04:19:47.365Z,7.34
2023-03-29T04:22:15.615Z,7.30
2023-03-29T04:24:44.162Z,7.30
2023-03-29T04:27:13.542Z,7.35
2023-03-29T04:29:43.529Z,7.24
2023-03-29T04:32:20.779Z,7.23
2023-03-29T04:34:48.006Z,7.21
2023-03-29T04:37:16.378Z,7.21
2023-03-29T04:39:47.683Z,7.26
2023-03-29T04:42:15.181Z,7.21
2023-03-29T04:44:43.972Z,7.28
2023-03-29T04:47:14.809Z,7.33
2023-03-29T04:49:43.077Z,7.38
2023-03-29T04:52:09.859Z,7.33
2023-03-29T04:54:40.144Z,7.32
2023-03-29T04:57:09.236Z,7.43
2023-03-29T04:59:36.558Z,7.43
2023-03-29T05:02:05.086Z,7.44
2023-03-29T05:04:36.593Z,7.41
2023-03-29T05:07:04.550Z,7.46
2023-03-29T05:09:34.312Z,7.47
2023-03-29T05:12:02.694Z,7.45
2023-03-29T05:14:33.566Z,7.50
2023-03-29T05:17:01.418Z,7.56
2023-03-29T05:19:28.441Z,7.61
2023-03-29T05:22:18.010Z,7.71
2023-03-29T05:25:46.158Z,7.67
2023-03-29T05:28:28.853Z,7.63
2023-03-29T05:31:09.487Z,7.60
2023-03-29T05:33:37.012Z,7.72
2023-03-29T05:36:06.734Z,7.66
2023-03-29T05:39:00.354Z,7.66
2023-03-29T05:41:29.936Z,7.67
2023-03-29T05:43:58.641Z,7.71
2023-03-29T05:46:35.746Z,7.96
2023-03-29T05:49:14.683Z,7.92
2023-03-29T05:51:52.528Z,7.90
2023-03-29T05:54:45.630Z,8.00
2023-03-29T05:57:22.404Z,7.98
2023-03-29T06:00:24.103Z,7.91
2023-03-29T06:02:54.029Z,8.07
2023-03-29T06:05:22.718Z,7.98
2023-03-29T06:07:52.685Z,7.90
2023-03-29T06:10:26.700Z,8.03
2023-03-29T06:12:58.644Z,8.11
2023-03-29T06:15:27.470Z,7.99
2023-03-29T06:18:19.174Z,8.38
2023-03-29T06:20:49.289Z,8.33
2023-03-29T06:23:20.004Z,8.25
2023-03-29T06:25:51.754Z,8.10
2023-03-29T06:28:21.282Z,8.37
2023-03-29T06:30:50.390Z,8.57
2023-03-29T06:33:20.741Z,8.42
2023-03-29T06:35:49.644Z,8.38
2023-03-29T06:38:17.256Z,8.38
2023-03-29T06:40:45.718Z,8.45
2023-03-29T06:43:14.131Z,8.25
2023-03-29T06:45:44.838Z,8.30
2023-03-29T06:48:13.347Z,8.38
2023-03-29T06:50:54.806Z,8.69
2023-03-29T06:53:24.493Z,8.63
2023-03-29T06:55:54.235Z,8.71
2023-03-29T06:58:25.815Z,8.64
2023-03-29T07:01:04.015Z,8.98
2023-03-29T07:03:47.779Z,8.95
2023-03-29T07:06:20.770Z,8.86
2023-03-29T07:08:54.720Z,9.02
2023-03-29T07:11:23.279Z,8.83
2023-03-29T07:13:51.311Z,8.78
2023-03-29T07:16:24.520Z,8.82
2023-03-29T07:18:55.269Z,9.18
2023-03-29T07:21:43.340Z,9.03
2023-03-29T07:24:11.539Z,9.15
2023-03-29T07:27:00.130Z,9.59
2023-03-29T07:29:37.375Z,9.37
2023-03-29T07:32:08.246Z,9.66
2023-03-29T07:34:48.716Z,9.33
2023-03-29T07:37:21.005Z,9.37
2023-03-29T07:39:52.490Z,9.21
2023-03-29T07:45:09.213Z,9.40
2023-03-29T07:47:37.526Z,9.40
2023-03-29T07:50:13.109Z,9.47
2023-03-29T07:53:10.849Z,9.54
2023-03-29T07:56:12.547Z,9.72
2023-03-29T07:58:48.344Z,10.01
2023-03-29T08:04:26.038Z,9.70
2023-03-29T08:06:59.096Z,10.17
2023-03-29T08:09:39.012Z,9.77
2023-03-29T08:12:18.173Z,9.95
2023-03-29T08:14:48.301Z,10.30
2023-03-29T08:17:17.328Z,10.59
2023-03-29T08:19:51.235Z,10.37
2023-03-29T08:22:19.834Z,10.28
2023-03-29T08:24:48.218Z,10.10
2023-03-29T08:27:17.678Z,10.06
2023-03-29T08:29:44.984Z,10.70
2023-03-29T08:32:16.546Z,10.48
2023-03-29T08:35:05.856Z,10.55
2023-03-29T08:37:33.342Z,11.00
2023-03-29T08:40:07.805Z,11.06
2023-03-29T08:42:56.752Z,11.21
2023-03-29T08:45:32.098Z,11.31
2023-03-29T08:48:11.443Z,10.93
2023-03-29T08:50:46.577Z,10.75
2023-03-29T08:53:28.066Z,11.15
2023-03-29T08:56:03.893Z,11.48
2023-03-29T09:01:37.996Z,11.14
2023-03-29T09:04:10.444Z,11.07
2023-03-29T09:09:36.372Z,11.16
2023-03-29T09:12:13.928Z,11.06
2023-03-29T09:14:57.629Z,11.24
2023-03-29T09:17:44.549Z,11.36
2023-03-29T09:20:44.430Z,11.26
2023-03-29T09:23:45.082Z,11.40
2023-03-29T09:26:23.865Z,11.48
2023-03-29T09:29:07.663Z,11.71
2023-03-29T09:31:50.616Z,11.81
2023-03-29T09:34:22.897Z,11.91
2023-03-29T09:37:03.357Z,12.20
2023-03-29T09:39:32.349Z,11.78
2023-03-29T09:42:08.235Z,11.74
2023-03-29T09:44:47.875Z,11.78
2023-03-29T09:47:22.162Z,11.95
2023-03-29T09:49:52.709Z,11.75
2023-03-29T09:52:22.780Z,11.44
2023-03-29T09:54:53.572Z,11.81
2023-03-29T09:57:21.094Z,12.41
2023-03-29T09:59:54.857Z,11.87
2023-03-29T10:02:23.730Z,11.94
2023-03-29T10:04:58.915Z,12.16
2023-03-29T10:07:44.465Z,12.39
2023-03-29T10:10:22.755Z,12.64
2023-03-29T10:13:31.262Z,12.15
2023-03-29T10:16:30.117Z,12.37
2023-03-29T10:19:16.683Z,12.55
2023-03-29T10:21:54.945Z,12.41
2023-03-29T10:24:39.222Z,12.14
2023-03-29T10:27:12.123Z,12.27
2023-03-29T10:29:45.659Z,12.55
2023-03-29T10:32:27.804Z,12.40
2023-03-29T10:35:20.595Z,12.50
2023-03-29T10:38:16.095Z,12.35
2023-03-29T10:40:54.398Z,12.53
2023-03-29T10:43:56.299Z,12.37
2023-03-29T10:47:00.128Z,12.18
2023-03-29T10:52:21.963Z,12.60
2023-03-29T10:54:55.250Z,12.36
2023-03-29T10:57:43.989Z,12.35
2023-03-29T11:00:32.044Z,13.21
2023-03-29T11:03:43.849Z,13.00
2023-03-29T11:06:42.435Z,13.50
2023-03-29T11:09:31.093Z,13.78
2023-03-29T11:12:28.840Z,13.03
2023-03-29T11:15:34.598Z,12.89
2023-03-29T11:18:20.911Z,13.32
2023-03-29T11:20:52.953Z,12.89
2023-03-29T11:23:46.647Z,13.09
2023-03-29T11:26:27.744Z,13.12
2023-03-29T11:29:03.163Z,12.88
2023-03-29T11:31:40.086Z,12.66
2023-03-29T11:34:31.048Z,12.66
2023-03-29T11:37:07.923Z,13.01
2023-03-29T11:40:16.984Z,12.86
2023-03-29T11:47:04.022Z,13.33
2023-03-29T11:50:54.371Z,12.99
2023-03-29T11:53:44.711Z,12.96
2023-03-29T11:56:17.859Z,13.21
2023-03-29T11:59:13.723Z,13.35
2023-03-29T12:01:50.742Z,13.75
2023-03-29T12:05:02.588Z,13.46
2023-03-29T12:07:36.240Z,13.32
2023-03-29T12:10:22.344Z,12.98
2023-03-29T12:13:00.299Z,13.22
2023-03-29T12:15:36.053Z,12.88
2023-03-29T12:18:18.654Z,13.01
2023-03-29T12:21:12.551Z,12.88
2023-03-29T12:23:43.984Z,12.57
2023-03-29T12:26:34.316Z,12.61
2023-03-29T12:29:20.981Z,12.22
2023-03-29T12:32:06.988Z,12.47
2023-03-29T12:35:07.898Z,12.07
2023-03-29T12:37:45.119Z,12.15
2023-03-29T12:40:18.430Z,12.09
2023-03-29T12:42:52.082Z,12.33
2023-03-29T12:45:33.088Z,12.73
2023-03-29T12:48:03.946Z,12.72
2023-03-29T12:50:48.861Z,12.69
2023-03-29T12:53:22.293Z,12.35
2023-03-29T12:55:55.490Z,12.25
2023-03-29T12:58:38.778Z,12.24
2023-03-29T13:01:22.812Z,12.57
2023-03-29T13:04:06.623Z,12.50
2023-03-29T13:06:52.287Z,12.46
2023-03-29T13:09:35.918Z,12.22
2023-03-29T13:12:24.822Z,12.33
2023-03-29T13:15:08.512Z,12.45
2023-03-29T13:17:51.178Z,12.45
2023-03-29T13:20:39.875Z,12.33
2023-03-29T13:23:27.226Z,12.22
2023-03-29T13:26:17.548Z,12.06
2023-03-29T13:29:12.153Z,12.31
2023-03-29T13:31:44.573Z,12.46
2023-03-29T13:34:24.763Z,12.34
2023-03-29T13:37:04.146Z,12.55
2023-03-29T13:39:36.935Z,12.79
2023-03-29T13:42:19.457Z,12.36
2023-03-29T13:44:50.372Z,12.58
2023-03-29T13:47:43.162Z,12.56
2023-03-29T13:50:20.732Z,12.69
2023-03-29T13:53:01.708Z,12.90
2023-03-29T13:55:43.778Z,12.84
2023-03-29T13:58:18.413Z,12.90
2023-03-29T14:00:51.393Z,12.85
2023-03-29T14:03:26.385Z,12.48
2023-03-29T14:06:02.684Z,12.47
2023-03-29T14:08:39.603Z,12.50
2023-03-29T14:11:12.649Z,12.76
2023-03-29T14:13:43.373Z,12.70
2023-03-29T14:16:15.034Z,12.58
2023-03-29T14:18:48.112Z,12.90
2023-03-29T14:21:17.575Z,13.06
2023-03-29T14:23:50.251Z,12.86
2023-03-29T14:26:25.186Z,13.37
2023-03-29T14:29:03.080Z,13.16
2023-03-29T14:31:32.899Z,13.21
2023-03-29T14:34:07.869Z,13.03
2023-03-29T14:36:39.246Z,13.12
2023-03-29T14:39:22.870Z,13.31
2023-03-29T14:42:01.063Z,13.37
2023-03-29T14:44:32.095Z,12.90
2023-03-29T14:47:01.173Z,13.15
2023-03-29T14:49:32.297Z,12.77
2023-03-29T14:52:13.487Z,12.77
2023-03-29T14:54:44.411Z,12.87
2023-03-29T14:57:16.695Z,13.12
2023-03-29T14:59:50.449Z,12.89
2023-03-29T15:02:26.819Z,13.14
2023-03-29T15:05:04.888Z,12.90
2023-03-29T15:07:35.500Z,13.00
2023-03-29T15:10:07.903Z,13.09
2023-03-29T15:12:38.256Z,12.97
2023-03-29T15:15:33.366Z,13.30
2023-03-29T15:18:02.413Z,13.32
2023-03-29T15:20:33.804Z,13.42
2023-03-29T15:23:25.062Z,13.55
2023-03-29T15:25:56.764Z,13.58
2023-03-29T15:28:31.391Z,14.22
2023-03-29T15:33:36.210Z,13.37
2023-03-29T15:36:22.824Z,13.51
2023-03-29T15:38:51.838Z,13.46
2023-03-29T15:41:19.219Z,13.23
2023-03-29T15:43:47.131Z,13.21
2023-03-29T15:46:23.166Z,13.17
2023-03-29T15:48:50.700Z,13.24
2023-03-29T15:51:19.028Z,13.25
2023-03-29T15:53:46.178Z,13.51
2023-03-29T15:56:18.659Z,13.24
2023-03-29T15:58:47.629Z,13.03
2023-03-29T16:01:23.824Z,13.06
2023-03-29T16:03:51.516Z,13.23
2023-03-29T16:06:22.196Z,13.23
2023-03-29T16:08:49.848Z,13.25
2023-03-29T16:11:19.456Z,13.22
2023-03-29T16:13:46.614Z,13.30
2023-03-29T16:16:14.157Z,13.35
2023-03-29T16:18:41.551Z,13.29
2023-03-29T16:21:13.500Z,13.37
2023-03-29T16:23:40.879Z,13.44
2023-03-29T16:26:08.450Z,13.40
2023-03-29T16:28:38.047Z,13.35
2023-03-29T16:31:11.120Z,13.39
2023-03-29T16:33:38.781Z,13.25
2023-03-29T16:36:08.119Z,13.34
2023-03-29T16:38:35.720Z,13.26
2023-03-29T16:41:03.172Z,13.11
2023-03-29T16:43:33.752Z,13.24
2023-03-29T16:46:04.373Z,13.31
2023-03-29T16:48:35.189Z,13.44
2023-03-29T16:51:05.503Z,13.24
2023-03-29T16:53:34.803Z,13.40
2023-03-29T16:56:02.747Z,13.16
2023-03-29T16:58:33.536Z,13.22
2023-03-29T17:01:10.233Z,13.32
2023-03-29T17:03:38.771Z,13.26
2023-03-29T17:06:16.609Z,13.46
2023-03-29T17:08:44.216Z,13.41
2023-03-29T17:11:13.165Z,13.33
2023-03-29T17:13:40.481Z,13.24
2023-03-29T17:16:09.604Z,13.27
2023-03-29T17:18:40.249Z,13.31
2023-03-29T17:21:08.489Z,13.39
2023-03-29T17:23:36.055Z,13.27
2023-03-29T17:26:03.746Z,13.30
2023-03-29T17:28:31.479Z,13.29
2023-03-29T17:31:03.895Z,13.36
2023-03-29T17:33:32.737Z,13.26
2023-03-29T17:35:59.838Z,13.31
2023-03-29T17:38:28.910Z,13.22
2023-03-29T17:40:57.182Z,13.13
2023-03-29T17:43:27.386Z,13.12
2023-03-29T17:45:54.955Z,13.10
2023-03-29T17:48:23.752Z,13.15
2023-03-29T17:50:55.241Z,13.15
2023-03-29T17:53:46.498Z,13.05
2023-03-29T17:56:20.344Z,13.10
2023-03-29T17:58:54.380Z,13.06
2023-03-29T18:01:21.509Z,13.09
2023-03-29T18:03:52.754Z,12.91
2023-03-29T18:06:33.002Z,12.91
2023-03-29T18:09:06.123Z,12.91
2023-03-29T18:11:41.300Z,12.89
2023-03-29T18:14:21.703Z,12.84
2023-03-29T18:17:13.700Z,12.82
2023-03-29T18:20:18.580Z,12.84
2023-03-29T18:25:39.058Z,12.76
2023-03-29T18:28:18.599Z,12.70
2023-03-29T18:30:51.309Z,12.65
2023-03-29T18:33:18.742Z,12.62
2023-03-29T18:35:50.570Z,12.65
2023-03-29T18:38:21.622Z,12.51
2023-03-29T18:40:50.759Z,12.53
2023-03-29T18:43:18.188Z,12.49
2023-03-29T18:45:45.689Z,12.52
2023-03-29T18:48:19.876Z,12.48
2023-03-29T18:50:51.461Z,12.44
2023-03-29T18:53:22.447Z,12.47
2023-03-29T18:55:51.968Z,12.41
2023-03-29T18:58:24.127Z,12.42
2023-03-29T19:00:54.804Z,12.37
2023-03-29T19:03:22.708Z,12.34
2023-03-29T19:05:55.537Z,12.44
2023-03-29T19:08:26.791Z,12.47
2023-03-29T19:11:00.771Z,12.34
2023-03-29T19:13:28.250Z,12.41
2023-03-29T19:15:56.722Z,12.37
2023-03-29T19:18:23.801Z,12.37
2023-03-29T19:20:52.676Z,12.36
2023-03-29T19:23:21.377Z,12.29
2023-03-29T19:25:54.247Z,12.33
2023-03-29T19:28:21.795Z,12.34
2023-03-29T19:30:49.806Z,12.30
2023-03-29T19:33:17.321Z,12.25
2023-03-29T19:35:44.728Z,12.30
2023-03-29T19:38:12.646Z,12.24
2023-03-29T19:40:39.667Z,12.27
2023-03-29T19:43:09.212Z,12.23
2023-03-29T19:45:36.413Z,12.24
2023-03-29T19:48:05.410Z,12.18
2023-03-29T19:50:32.590Z,12.22
2023-03-29T19:53:04.139Z,12.19
2023-03-29T19:55:31.175Z,12.15
2023-03-29T19:58:01.399Z,12.19
2023-03-29T20:00:39.798Z,12.16
2023-03-29T20:03:11.296Z,12.16
2023-03-29T20:05:39.286Z,12.19
2023-03-29T20:08:07.152Z,12.18
2023-03-29T20:10:35.679Z,12.17
2023-03-29T20:13:03.812Z,12.17
2023-03-29T20:15:35.464Z,12.20
2023-03-29T20:18:08.153Z,12.17
2023-03-29T20:20:35.774Z,12.20
2023-03-29T20:23:05.229Z,12.26
2023-03-29T20:25:33.173Z,12.24
2023-03-29T20:28:04.018Z,12.29
2023-03-29T20:30:36.378Z,12.31
2023-03-29T20:33:04.862Z,12.38
2023-03-29T20:35:32.252Z,12.34
2023-03-29T20:37:59.582Z,12.39
2023-03-29T20:40:28.837Z,12.43
2023-03-29T20:42:56.826Z,12.43
2023-03-29T20:45:24.209Z,12.53
2023-03-29T20:48:04.553Z,12.49
2023-03-29T20:50:32.200Z,12.53
2023-03-29T20:53:03.819Z,12.53
2023-03-29T20:55:35.234Z,12.44
2023-03-29T20:58:02.686Z,12.41
2023-03-29T21:00:34.013Z,12.46
2023-03-29T21:03:09.369Z,12.38
2023-03-29T21:05:37.045Z,12.39
2023-03-29T21:08:04.506Z,12.50
2023-03-29T21:10:31.947Z,12.41
2023-03-29T21:13:00.885Z,12.41
2023-03-29T21:15:32.178Z,12.36
2023-03-29T21:17:59.863Z,12.41
2023-03-29T21:20:28.734Z,12.41
2023-03-29T21:22:58.154Z,12.36
2023-03-29T21:25:25.605Z,12.37
2023-03-29T21:27:55.459Z,12.38
2023-03-29T21:30:22.813Z,12.39
2023-03-29T21:32:50.133Z,12.34
2023-03-29T21:35:17.805Z,12.28
2023-03-29T21:37:47.001Z,12.27
2023-03-29T21:40:20.113Z,12.33
2023-03-29T21:42:47.949Z,12.33
2023-03-29T21:45:15.201Z,12.32
2023-03-29T21:47:42.523Z,12.25
2023-03-29T21:50:13.833Z,12.36
2023-03-29T21:52:41.471Z,12.31
2023-03-29T21:55:10.209Z,12.37
2023-03-29T21:57:37.381Z,12.29
2023-03-29T22:00:11.158Z,12.29
2023-03-29T22:02:39.202Z,12.28
2023-03-29T22:05:07.184Z,12.30
2023-03-29T22:07:38.818Z,12.33
2023-03-29T22:10:12.511Z,12.37
2023-03-29T22:12:41.374Z,12.35
2023-03-29T22:15:13.604Z,12.48
2023-03-29T22:17:43.039Z,12.42
2023-03-29T22:20:13.333Z,12.50
2023-03-29T22:22:44.900Z,12.51
2023-03-29T22:25:16.154Z,12.54
2023-03-29T22:27:44.235Z,12.52
2023-03-29T22:30:11.734Z,12.55
2023-03-29T22:32:39.050Z,12.53
2023-03-29T22:35:09.027Z,12.54
2023-03-29T22:37:40.626Z,12.57
2023-03-29T22:40:10.310Z,12.70
2023-03-29T22:42:39.094Z,12.78
2023-03-29T22:45:07.563Z,12.71
2023-03-29T22:47:35.651Z,12.79
2023-03-29T22:50:02.346Z,12.81
2023-03-29T22:52:31.677Z,12.75
2023-03-29T22:54:58.833Z,12.72
2023-03-29T22:57:26.170Z,12.81
2023-03-29T22:59:54.882Z,12.79
2023-03-29T23:02:21.851Z,12.79
2023-03-29T23:04:49.514Z,12.81
2023-03-29T23:07:17.510Z,12.73
2023-03-29T23:09:45.659Z,12.67
2023-03-29T23:12:16.130Z,12.76
2023-03-29T23:14:45.300Z,12.74
2023-03-29T23:17:13.916Z,12.71
2023-03-29T23:19:41.694Z,12.76
2023-03-29T23:22:28.810Z,12.69
2023-03-29T23:24:56.250Z,12.71
2023-03-29T23:27:23.703Z,12.72
2023-03-29T23:29:51.092Z,12.75
2023-03-29T23:32:21.060Z,12.79
2023-03-29T23:34:48.428Z,12.73
2023-03-29T23:37:15.569Z,12.69
2023-03-29T23:39:43.702Z,12.80
2023-03-29T23:42:11.122Z,12.80
2023-03-29T23:44:38.647Z,12.77
2023-03-29T23:47:06.280Z,12.82
2023-03-29T23:49:36.297Z,12.85
2023-03-29T23:52:06.129Z,12.94
2023-03-29T23:54:33.643Z,13.27
2023-03-29T23:57:02.793Z,13.32
2023-03-29T23:59:37.884Z,13.34
